Airfield :
LOGIN :

Register | Disclaimer

   EN    FR    IT 

 










Legend :    VFR   Marginal VFR   IFR   Intensive IFR   Very Intensive IFR
Visi :
Ceiling :
>= 8 km
>= 3000ft
5 to 8 km
1000 to 3000 ft
1500m to 5 km
500 to 1000 ft
800 to 1500m
200 to 500 ft
< 800m
< 200 ft
Symbols :   Thunderstorms  Fog  Heavy snow  Heavy precipitations  Wind > 20 kt
SIGMETs :     Misc.  Thunderstorms  Icing  Turbulence  Mountain Waves  Volcanic Ashes






- Airport Elevation : 427 ft
- IATA code : KBP


UKBB - Boryspil'

CURRENT METAR :
  • 031300Z 24002MPS 160V290 9999 FEW040 17/08 Q1005 R18L/CLRD// NOSIG

EXPIRED METARs :
  • 031230Z 13005MPS CAVOK 18/06 Q1005 R18L/CLRD// NOSIG
  • 031200Z 14005MPS 110V170 CAVOK 20/08 Q1005 R18L/CLRD// NOSIG
  • 031130Z 15006MPS CAVOK 20/07 Q1005 R18L/CLRD// NOSIG
  • 031100Z 17007MPS CAVOK 19/07 Q1005 R18L/CLRD// NOSIG
  • 031030Z 17007MPS CAVOK 20/07 Q1005 R18L/CLRD// NOSIG

TAF TAF UKBB
Valid from the 03 at 12:00 until the 04 at 12:00 UTC


031100Z 0312/0412 17005G10MPS 9999 BKN015
TEMPO 0312/0318 VRB10G17MPS 2100 -TSRAGR SQ BKN006 BKN012CB
TEMPO 0318/0406 20003MPS 1600 BR BKN005
TEMPO 0406/0412 19007G13MPS 2100 -SHRA BKN006 BKN015CB



MET'MAP, your aeronautical weather chart ! - Copyright ORBIFLY December 2007 - Disclaimer

ORBIFLY MET'MAP TEAM :

Programming & Development : Alexandra Zaïnal
Concept & original design : Baudouin d'Aumeries
Assistance for programming : Marc-Olivier Méhu
Technical & hardware support : Manuel Goepfert

Contact : metmap@orbifly.com




SOURCES & CREDITS :

   NOAA